Time;durP1;ratioP1;P1;durP2;ratioP2;P2;SDS_P1;SDS_P2;PMS_P1;PMS_P2;Temp;Humidity;BMP_temperature;BMP_pressure;BME280_temperature;BME280_humidity;BME280_pressure;Samples;Min_cycle;Max_cycle;Signal;HPM_P1;HPM_P2
2023/02/02 00:02:02;;;;;;;17.60;2.20;;;8.70;99.90;;;;;;5097940;28;20036;-60
2023/02/02 00:04:33;;;;;;;22.52;2.92;;;8.70;99.90;;;;;;5113805;28;20066;-60
2023/02/02 00:07:01;;;;;;;15.88;3.15;;;8.70;99.90;;;;;;5109852;28;20096;-60
2023/02/02 00:09:30;;;;;;;10.80;2.00;;;8.70;99.90;;;;;;5103926;28;20149;-60
2023/02/02 00:11:57;;;;;;;16.48;3.22;;;8.70;99.90;;;;;;5101485;28;20063;-60
2023/02/02 00:14:24;;;;;;;17.63;3.03;;;8.70;99.90;;;;;;5085264;28;20494;-60
2023/02/02 00:16:54;;;;;;;17.23;2.05;;;8.70;99.90;;;;;;5097326;28;20067;-61
2023/02/02 00:19:25;;;;;;;11.38;2.10;;;8.70;99.90;;;;;;5096499;28;20351;-60
2023/02/02 00:21:52;;;;;;;11.20;2.22;;;8.80;99.90;;;;;;5080485;28;20039;-60
2023/02/02 00:24:19;;;;;;;17.02;2.92;;;8.70;99.90;;;;;;5087649;28;20044;-61
2023/02/02 00:26:48;;;;;;;18.58;2.22;;;8.70;99.90;;;;;;5090992;28;20237;-60
2023/02/02 00:29:24;;;;;;;15.27;2.75;;;8.70;99.90;;;;;;5109358;28;20035;-61
2023/02/02 00:31:51;;;;;;;10.50;2.40;;;8.80;99.90;;;;;;5115262;28;20067;-61
2023/02/02 00:34:18;;;;;;;11.50;1.90;;;8.80;99.90;;;;;;5093851;28;20058;-61
2023/02/02 00:36:45;;;;;;;14.23;2.95;;;8.80;99.90;;;;;;5096377;28;20048;-61
2023/02/02 00:39:14;;;;;;;18.23;4.45;;;8.70;99.90;;;;;;5099164;28;20101;-62
2023/02/02 00:41:41;;;;;;;8.82;1.98;;;8.80;99.90;;;;;;5098655;28;20135;-61
2023/02/02 00:46:53;;;;;;;10.68;2.20;;;8.80;99.90;;;;;;5077867;28;20048;-61
2023/02/02 00:49:20;;;;;;;10.85;1.95;;;8.80;99.90;;;;;;5099679;28;20077;-61
2023/02/02 00:51:47;;;;;;;18.48;3.00;;;8.80;99.90;;;;;;5091152;28;20047;-61
2023/02/02 00:54:13;;;;;;;16.67;2.95;;;8.70;99.90;;;;;;5100520;28;20127;-61
2023/02/02 00:56:40;;;;;;;11.85;2.67;;;8.80;99.90;;;;;;5113140;28;20047;-59
2023/02/02 00:59:07;;;;;;;12.55;2.17;;;8.80;99.90;;;;;;5086377;28;20120;-62
2023/02/02 01:01:34;;;;;;;15.27;2.38;;;8.70;99.90;;;;;;5110819;28;20048;-61
2023/02/02 01:04:01;;;;;;;9.85;2.10;;;8.80;99.90;;;;;;5112576;28;20068;-58
2023/02/02 01:06:28;;;;;;;16.15;4.47;;;8.80;99.90;;;;;;5104738;28;20059;-60
2023/02/02 01:08:54;;;;;;;11.77;1.80;;;8.80;99.90;;;;;;5100049;28;20104;-61
2023/02/02 01:11:21;;;;;;;7.70;1.85;;;8.80;99.90;;;;;;5105345;28;20051;-60
2023/02/02 01:13:48;;;;;;;15.55;3.22;;;8.80;99.90;;;;;;5113549;28;20127;-60
2023/02/02 01:16:14;;;;;;;12.93;2.80;;;8.80;99.90;;;;;;5090162;28;20487;-61
2023/02/02 01:18:41;;;;;;;8.73;2.30;;;8.80;99.90;;;;;;5095711;28;20048;-60
2023/02/02 01:21:10;;;;;;;14.25;2.40;;;8.80;99.90;;;;;;5104641;28;20531;-60
2023/02/02 01:23:37;;;;;;;12.80;2.33;;;8.80;99.90;;;;;;5098219;28;20052;-61
2023/02/02 01:26:06;;;;;;;12.75;2.28;;;8.80;99.90;;;;;;5109451;28;20118;-62
2023/02/02 01:28:33;;;;;;;10.93;3.20;;;8.80;99.90;;;;;;5094774;28;20040;-61
2023/02/02 01:31:05;;;;;;;14.65;2.35;;;8.80;99.90;;;;;;5100418;28;20162;-61
2023/02/02 01:33:32;;;;;;;9.55;2.75;;;8.80;99.90;;;;;;5116399;28;20040;-61
2023/02/02 01:36:04;;;;;;;14.00;2.47;;;8.80;99.90;;;;;;5096421;28;20040;-61
2023/02/02 01:38:31;;;;;;;11.60;2.92;;;8.80;99.90;;;;;;5078253;28;20059;-61
2023/02/02 01:40:58;;;;;;;14.10;2.30;;;8.90;99.90;;;;;;5099499;28;20438;-61
2023/02/02 01:43:44;;;;;;;14.65;2.25;;;8.80;99.90;;;;;;5112997;28;20047;-61
2023/02/02 01:46:15;;;;;;;7.70;2.28;;;8.80;99.90;;;;;;5103693;28;20293;-61
2023/02/02 01:48:56;;;;;;;11.07;2.72;;;8.80;99.90;;;;;;5112879;28;20047;-61
2023/02/02 01:51:27;;;;;;;9.18;1.73;;;8.80;99.90;;;;;;5110426;28;20140;-61
2023/02/02 01:56:26;;;;;;;10.68;1.95;;;8.70;99.90;;;;;;4839685;23;20058;-72
2023/02/02 01:58:53;;;;;;;8.90;1.70;;;8.70;99.90;;;;;;4993801;28;20056;-73
2023/02/02 02:01:19;;;;;;;17.27;2.38;;;8.70;99.90;;;;;;5019048;28;20064;-73
2023/02/02 02:03:46;;;;;;;11.75;1.73;;;8.60;99.90;;;;;;5013684;28;20100;-72
2023/02/02 02:06:16;;;;;;;19.50;2.75;;;8.60;99.90;;;;;;5014334;28;20807;-72
2023/02/02 02:09:12;;;;;;;10.43;1.75;;;8.50;99.90;;;;;;4989066;28;20049;-72
2023/02/02 02:11:38;;;;;;;9.18;1.95;;;8.50;99.90;;;;;;5007397;28;20064;-72
2023/02/02 02:17:13;;;;;;;14.68;1.85;;;8.50;99.90;;;;;;5024349;28;20442;-72
2023/02/02 02:26:32;;;;;;;8.52;2.25;;;8.50;99.90;;;;;;5012397;28;20057;-72
2023/02/02 02:26:34;;;;;;;14.82;3.17;;;8.40;99.90;;;;;;5006195;28;20081;-72
2023/02/02 02:29:08;;;;;;;12.63;2.95;;;8.40;99.90;;;;;;5002455;28;20053;-70
2023/02/02 02:31:50;;;;;;;8.30;1.90;;;8.40;99.90;;;;;;5007029;28;20056;-71
2023/02/02 02:34:22;;;;;;;18.80;2.60;;;8.40;99.90;;;;;;5019568;28;20052;-71
2023/02/02 02:37:16;;;;;;;16.75;2.38;;;8.40;99.90;;;;;;5013921;28;20046;-72
2023/02/02 02:40:08;;;;;;;10.87;3.70;;;8.30;99.90;;;;;;4990768;28;20056;-71
2023/02/02 02:42:40;;;;;;;17.25;1.85;;;8.40;99.90;;;;;;5024458;28;20045;-71
2023/02/02 02:45:07;;;;;;;14.00;2.58;;;8.40;99.90;;;;;;4996604;28;20052;-72
2023/02/02 02:47:34;;;;;;;10.68;2.10;;;8.30;99.90;;;;;;4980284;28;20045;-72
2023/02/02 02:50:01;;;;;;;11.77;2.33;;;8.40;99.90;;;;;;5010999;28;20496;-72
2023/02/02 02:52:28;;;;;;;10.20;2.30;;;8.40;99.90;;;;;;5023631;28;20050;-72
2023/02/02 02:54:55;;;;;;;11.73;2.30;;;8.40;99.90;;;;;;4992493;28;20045;-72
2023/02/02 02:57:42;;;;;;;17.98;2.30;;;8.50;99.90;;;;;;5007758;28;20534;-72
2023/02/02 03:00:30;;;;;;;12.32;1.90;;;8.50;99.90;;;;;;5019217;28;20045;-72
2023/02/02 03:03:05;;;;;;;14.90;2.15;;;8.50;99.90;;;;;;5023495;28;20052;-72
2023/02/02 03:05:32;;;;;;;15.45;3.35;;;8.40;99.90;;;;;;5022324;28;20053;-73
2023/02/02 03:08:05;;;;;;;14.88;3.03;;;8.40;99.90;;;;;;5022285;28;20046;-72
2023/02/02 03:10:32;;;;;;;17.30;2.65;;;8.40;99.90;;;;;;5017073;28;20492;-72
2023/02/02 03:12:59;;;;;;;13.35;2.08;;;8.40;99.90;;;;;;4996106;28;20051;-72
2023/02/02 03:15:25;;;;;;;13.10;2.08;;;8.40;99.90;;;;;;5014431;28;20056;-72
2023/02/02 03:17:52;;;;;;;17.55;2.25;;;8.30;99.90;;;;;;5009935;28;20052;-72
2023/02/02 03:20:19;;;;;;;13.05;2.70;;;8.30;99.90;;;;;;5017094;28;20050;-71
2023/02/02 03:22:46;;;;;;;12.75;1.92;;;8.30;99.90;;;;;;5027538;28;20627;-72
2023/02/02 03:25:14;;;;;;;10.80;2.35;;;8.30;99.90;;;;;;5018704;28;20057;-72
2023/02/02 03:27:41;;;;;;;6.93;1.88;;;8.30;99.90;;;;;;5008001;28;20050;-71
2023/02/02 03:30:09;;;;;;;8.70;1.92;;;8.20;99.90;;;;;;5014402;28;20064;-72
2023/02/02 03:32:36;;;;;;;13.65;2.42;;;8.20;99.90;;;;;;5026933;28;20049;-71
2023/02/02 03:35:03;;;;;;;11.52;2.10;;;8.10;99.90;;;;;;5023530;28;20045;-71
2023/02/02 03:37:30;;;;;;;13.30;1.83;;;8.10;99.90;;;;;;5008089;28;20054;-70
2023/02/02 03:39:57;;;;;;;7.55;1.88;;;8.00;99.90;;;;;;5012096;28;20056;-70
2023/02/02 03:42:23;;;;;;;7.22;1.92;;;8.00;99.90;;;;;;5025746;28;20136;-70
2023/02/02 03:44:50;;;;;;;14.18;2.53;;;8.00;99.90;;;;;;5022281;28;20048;-71
2023/02/02 03:47:17;;;;;;;21.63;2.90;;;7.90;99.90;;;;;;5028264;28;20140;-68
2023/02/02 03:49:43;;;;;;;16.92;3.05;;;7.90;99.90;;;;;;5028712;28;20579;-71
2023/02/02 03:52:10;;;;;;;12.38;2.03;;;7.90;99.90;;;;;;5019874;28;20053;-70
2023/02/02 03:54:37;;;;;;;20.77;2.65;;;7.80;99.90;;;;;;5015342;28;20052;-70
2023/02/02 03:57:03;;;;;;;18.02;2.30;;;7.80;99.90;;;;;;5005780;28;20053;-69
2023/02/02 03:59:30;;;;;;;14.52;2.95;;;7.70;99.90;;;;;;5028126;28;20488;-71
2023/02/02 04:01:57;;;;;;;14.48;2.63;;;7.70;99.90;;;;;;5020513;28;20060;-70
2023/02/02 04:04:23;;;;;;;13.05;2.90;;;7.60;99.90;;;;;;5026255;28;20597;-70
2023/02/02 04:06:50;;;;;;;12.43;2.20;;;7.50;99.90;;;;;;5031082;28;20049;-71
2023/02/02 04:09:17;;;;;;;14.00;2.83;;;7.50;99.90;;;;;;5031066;28;20050;-70
2023/02/02 04:11:44;;;;;;;10.43;2.78;;;7.50;99.90;;;;;;5019037;28;20518;-71
2023/02/02 04:14:10;;;;;;;12.95;2.08;;;7.50;99.90;;;;;;5030503;28;20050;-71
2023/02/02 04:16:38;;;;;;;12.00;1.95;;;7.40;99.90;;;;;;5018752;28;20050;-71
2023/02/02 04:19:04;;;;;;;12.98;2.33;;;7.40;99.90;;;;;;5031643;28;20053;-71
2023/02/02 04:21:31;;;;;;;12.68;1.92;;;7.40;99.90;;;;;;5027207;28;20049;-70
2023/02/02 04:23:58;;;;;;;11.35;1.83;;;7.30;99.90;;;;;;5012406;28;20504;-70
2023/02/02 04:26:25;;;;;;;10.80;3.22;;;7.30;99.90;;;;;;5020322;28;20049;-71
2023/02/02 04:28:52;;;;;;;11.35;1.88;;;7.30;99.90;;;;;;5013882;28;20107;-71
2023/02/02 04:31:19;;;;;;;12.70;3.75;;;7.30;99.90;;;;;;5015030;28;20045;-71
2023/02/02 04:33:45;;;;;;;12.57;2.15;;;7.30;99.90;;;;;;5008610;28;20053;-70
2023/02/02 04:36:12;;;;;;;15.68;2.35;;;7.30;99.90;;;;;;5025485;28;20046;-71
2023/02/02 04:38:39;;;;;;;6.25;1.45;;;7.20;99.90;;;;;;5023598;28;20615;-71
2023/02/02 04:41:07;;;;;;;17.42;2.50;;;7.20;99.90;;;;;;5008583;28;20136;-72
2023/02/02 04:43:34;;;;;;;10.38;2.22;;;7.20;99.90;;;;;;5002838;28;20052;-72
2023/02/02 04:46:01;;;;;;;15.57;2.42;;;7.20;99.90;;;;;;5028572;28;20488;-72
2023/02/02 04:48:28;;;;;;;10.30;2.90;;;7.20;99.90;;;;;;5019594;28;20049;-72
2023/02/02 04:51:06;;;;;;;15.40;2.15;;;7.30;99.90;;;;;;5029411;28;20041;-71
2023/02/02 04:53:32;;;;;;;13.73;4.20;;;7.20;99.90;;;;;;5022229;28;20492;-71
2023/02/02 04:56:06;;;;;;;12.55;2.35;;;7.20;99.90;;;;;;5010793;28;20058;-71
2023/02/02 04:58:33;;;;;;;13.73;2.50;;;7.20;99.90;;;;;;5021546;28;20141;-73
2023/02/02 05:00:59;;;;;;;10.02;1.67;;;7.20;99.90;;;;;;5010921;28;20053;-72
2023/02/02 05:03:26;;;;;;;9.45;2.10;;;7.20;99.90;;;;;;5017758;28;20045;-69
2023/02/02 05:06:03;;;;;;;14.60;2.42;;;7.20;99.90;;;;;;5012320;28;20053;-70
2023/02/02 05:08:29;;;;;;;14.57;2.45;;;7.20;99.90;;;;;;5016715;28;20071;-70
2023/02/02 05:10:56;;;;;;;13.38;2.50;;;7.10;99.90;;;;;;5012325;28;20071;-70
2023/02/02 05:13:23;;;;;;;14.27;3.38;;;7.10;99.90;;;;;;5020503;28;20054;-69
2023/02/02 05:15:50;;;;;;;10.02;1.83;;;7.10;99.90;;;;;;5010671;28;20046;-69
2023/02/02 05:18:16;;;;;;;10.30;2.25;;;7.10;99.90;;;;;;5014100;28;20496;-71
2023/02/02 05:20:43;;;;;;;11.25;2.40;;;7.10;99.90;;;;;;5028701;28;20041;-71
2023/02/02 05:23:10;;;;;;;20.88;4.20;;;7.00;99.90;;;;;;5021548;28;20064;-71
2023/02/02 05:25:36;;;;;;;12.07;2.53;;;7.00;99.90;;;;;;5025542;28;20516;-71
2023/02/02 05:28:03;;;;;;;9.35;2.20;;;7.00;99.90;;;;;;5025221;28;20852;-71
2023/02/02 05:30:30;;;;;;;12.07;2.00;;;7.00;99.90;;;;;;5016276;28;20056;-71
2023/02/02 05:32:59;;;;;;;13.13;2.70;;;7.00;99.90;;;;;;5013857;28;20088;-72
2023/02/02 05:35:25;;;;;;;8.70;2.45;;;7.00;99.90;;;;;;5021967;28;20046;-71
2023/02/02 05:37:52;;;;;;;10.15;1.50;;;7.00;99.90;;;;;;5025271;28;20795;-71
2023/02/02 05:40:19;;;;;;;12.88;3.15;;;7.00;99.90;;;;;;5020554;28;20133;-72
2023/02/02 05:42:49;;;;;;;11.32;2.03;;;7.00;99.90;;;;;;5011714;28;20049;-72
2023/02/02 05:45:16;;;;;;;6.60;2.70;;;6.90;99.90;;;;;;5014839;28;20582;-70
2023/02/02 05:47:43;;;;;;;13.70;2.45;;;6.90;99.90;;;;;;5009504;28;20064;-71
2023/02/02 05:50:09;;;;;;;17.70;2.63;;;7.00;99.90;;;;;;5020886;28;20052;-70
2023/02/02 05:52:36;;;;;;;7.80;1.40;;;7.00;99.90;;;;;;5009741;28;20564;-69
2023/02/02 05:55:03;;;;;;;14.02;2.28;;;6.90;99.90;;;;;;5019892;28;20052;-70
2023/02/02 05:57:30;;;;;;;10.05;3.05;;;6.90;99.90;;;;;;5009339;28;20049;-70
2023/02/02 05:59:57;;;;;;;8.88;1.73;;;6.90;99.90;;;;;;5014184;28;20050;-69
2023/02/02 06:02:23;;;;;;;14.13;2.08;;;6.90;99.90;;;;;;5029589;28;20049;-69
2023/02/02 06:04:50;;;;;;;11.73;2.13;;;6.90;99.90;;;;;;5024939;28;20641;-70
2023/02/02 06:07:17;;;;;;;14.30;2.20;;;6.90;99.90;;;;;;5009915;28;20050;-70
2023/02/02 06:09:44;;;;;;;13.02;2.17;;;6.90;99.90;;;;;;4995360;28;20046;-70
2023/02/02 06:12:10;;;;;;;9.55;1.67;;;6.90;99.90;;;;;;5025001;28;20049;-70
2023/02/02 06:14:37;;;;;;;6.45;1.60;;;6.90;99.90;;;;;;5023641;28;20048;-70
2023/02/02 06:17:05;;;;;;;6.75;1.85;;;6.90;99.90;;;;;;5015838;28;20157;-72
2023/02/02 06:19:32;;;;;;;6.32;3.33;;;6.90;99.90;;;;;;5013161;28;20049;-70
2023/02/02 06:21:58;;;;;;;10.10;2.25;;;6.90;99.90;;;;;;5021008;28;20052;-71
2023/02/02 06:24:25;;;;;;;11.73;1.92;;;7.00;99.90;;;;;;5027277;28;20053;-70
2023/02/02 06:26:52;;;;;;;4.53;1.50;;;6.90;99.90;;;;;;5018309;28;20049;-70
2023/02/02 06:29:19;;;;;;;5.97;1.63;;;7.00;99.90;;;;;;5025922;28;20080;-70
2023/02/02 06:31:46;;;;;;;4.55;1.45;;;6.90;99.90;;;;;;5018858;28;20056;-71
2023/02/02 06:34:13;;;;;;;13.25;1.77;;;6.90;99.90;;;;;;5026540;28;20050;-71
2023/02/02 06:36:40;;;;;;;12.20;1.90;;;7.00;99.90;;;;;;5017567;28;20471;-70
2023/02/02 06:39:08;;;;;;;8.48;2.20;;;7.00;99.90;;;;;;5028707;28;20506;-70
2023/02/02 06:41:35;;;;;;;8.80;1.90;;;7.00;99.90;;;;;;5006764;28;20123;-70
2023/02/02 06:44:02;;;;;;;8.27;1.70;;;7.00;99.90;;;;;;5028323;28;20444;-71
2023/02/02 06:46:28;;;;;;;11.10;1.98;;;6.90;99.90;;;;;;5016275;28;20128;-71
2023/02/02 06:48:55;;;;;;;8.60;1.85;;;7.00;99.90;;;;;;5019588;28;20104;-71
2023/02/02 06:51:22;;;;;;;12.02;1.83;;;6.90;99.90;;;;;;5020426;28;20388;-71
2023/02/02 06:53:48;;;;;;;10.52;1.95;;;7.00;99.90;;;;;;5027219;28;20041;-71
2023/02/02 06:56:15;;;;;;;9.70;1.67;;;7.00;99.90;;;;;;5013862;28;20054;-70
2023/02/02 06:58:42;;;;;;;11.23;2.15;;;7.00;99.90;;;;;;5024744;28;20587;-70
2023/02/02 07:01:10;;;;;;;11.52;3.63;;;7.00;99.90;;;;;;5024392;28;20046;-71
2023/02/02 07:03:37;;;;;;;10.55;2.35;;;7.10;99.90;;;;;;5019069;28;20049;-71
2023/02/02 07:06:15;;;;;;;11.68;1.75;;;7.10;99.90;;;;;;5012747;28;20049;-70
2023/02/02 07:08:41;;;;;;;9.00;1.92;;;7.10;99.90;;;;;;5021152;28;20045;-70
2023/02/02 07:11:08;;;;;;;11.32;1.52;;;7.10;99.90;;;;;;5024489;28;20041;-70
2023/02/02 07:13:45;;;;;;;6.25;1.63;;;7.10;99.90;;;;;;5020171;28;20057;-70
2023/02/02 07:16:12;;;;;;;6.53;1.92;;;7.10;99.90;;;;;;5023685;28;20246;-70
2023/02/02 07:18:41;;;;;;;14.90;1.75;;;7.10;99.90;;;;;;5017704;28;20498;-69
2023/02/02 07:21:14;;;;;;;10.10;2.40;;;7.10;99.90;;;;;;4994236;28;20042;-71
2023/02/02 07:23:40;;;;;;;11.20;2.05;;;7.10;99.90;;;;;;4991083;28;20056;-72
2023/02/02 07:26:08;;;;;;;11.00;1.80;;;7.10;99.90;;;;;;5008831;28;20048;-71
2023/02/02 07:28:34;;;;;;;6.97;1.63;;;7.10;99.90;;;;;;5014993;28;20049;-71
2023/02/02 07:31:14;;;;;;;10.68;1.88;;;7.10;99.90;;;;;;5026785;28;20041;-71
2023/02/02 07:33:41;;;;;;;10.27;1.20;;;7.10;99.90;;;;;;5018924;28;20596;-71
2023/02/02 07:36:09;;;;;;;10.77;2.65;;;7.10;99.90;;;;;;5023616;28;20088;-70
2023/02/02 07:38:36;;;;;;;12.20;3.10;;;7.00;99.90;;;;;;5014639;28;20048;-69
2023/02/02 07:41:03;;;;;;;16.90;3.47;;;7.10;99.90;;;;;;5026954;28;20052;-72
2023/02/02 07:43:30;;;;;;;9.25;1.73;;;7.10;99.90;;;;;;5025983;28;20128;-72
2023/02/02 07:46:05;;;;;;;10.43;1.40;;;7.10;99.90;;;;;;5013623;28;20056;-70
2023/02/02 07:48:32;;;;;;;13.90;2.80;;;7.20;99.90;;;;;;5012197;28;20065;-71
2023/02/02 07:51:03;;;;;;;11.30;2.10;;;7.20;99.90;;;;;;5025172;28;20054;-72
2023/02/02 07:53:30;;;;;;;11.82;2.28;;;7.20;99.90;;;;;;4987673;28;20097;-71
2023/02/02 07:56:15;;;;;;;13.90;1.73;;;7.20;99.90;;;;;;4998306;28;20488;-71
2023/02/02 07:58:42;;;;;;;9.90;1.50;;;7.20;99.90;;;;;;5010257;28;20623;-71
2023/02/02 08:01:10;;;;;;;6.05;1.40;;;7.20;99.90;;;;;;5024582;28;20049;-71
2023/02/02 08:03:37;;;;;;;8.73;2.35;;;7.20;99.90;;;;;;5022136;28;20076;-71
2023/02/02 08:06:12;;;;;;;11.30;1.80;;;7.30;99.90;;;;;;5009851;28;20053;-71
2023/02/02 08:08:38;;;;;;;11.68;2.22;;;7.20;99.90;;;;;;5011756;28;20342;-70
2023/02/02 08:11:11;;;;;;;14.60;1.50;;;7.20;99.90;;;;;;5022937;28;20128;-71
2023/02/02 08:13:38;;;;;;;5.55;1.40;;;7.30;99.90;;;;;;5023256;28;20128;-71
2023/02/02 08:16:06;;;;;;;6.18;1.92;;;7.30;99.90;;;;;;5026187;28;20049;-71
2023/02/02 08:18:33;;;;;;;6.43;1.55;;;7.40;99.90;;;;;;5021940;28;20053;-71
2023/02/02 08:21:00;;;;;;;8.40;1.80;;;7.40;99.90;;;;;;5015877;28;20669;-71
2023/02/02 08:23:27;;;;;;;11.13;2.17;;;7.50;99.90;;;;;;5012872;28;20045;-72
2023/02/02 08:26:03;;;;;;;12.02;2.42;;;7.60;99.90;;;;;;5026938;28;20132;-72
2023/02/02 08:28:30;;;;;;;14.27;1.90;;;7.60;99.90;;;;;;5022719;28;20053;-73
2023/02/02 08:31:02;;;;;;;12.57;2.00;;;7.70;99.90;;;;;;5019969;28;20037;-72
2023/02/02 08:33:28;;;;;;;8.10;2.65;;;7.70;99.90;;;;;;5015922;28;20161;-72
2023/02/02 08:35:55;;;;;;;16.88;1.77;;;7.70;99.90;;;;;;5028904;28;20049;-72
2023/02/02 08:38:23;;;;;;;15.93;3.67;;;7.80;99.90;;;;;;5029470;28;20064;-72
2023/02/02 08:40:50;;;;;;;8.25;1.90;;;7.80;99.90;;;;;;5025115;28;20133;-73
2023/02/02 08:43:16;;;;;;;11.18;1.98;;;7.80;99.90;;;;;;5023214;28;20469;-73
2023/02/02 08:45:43;;;;;;;12.20;3.08;;;7.90;99.90;;;;;;5018003;28;20065;-74
2023/02/02 08:48:30;;;;;;;13.52;2.40;;;8.00;99.90;;;;;;5027782;28;20503;-72
2023/02/02 08:50:57;;;;;;;10.52;2.00;;;8.00;99.90;;;;;;5022036;28;20056;-72
2023/02/02 08:53:24;;;;;;;9.90;2.30;;;8.10;99.90;;;;;;5019953;28;20056;-75
2023/02/02 08:56:02;;;;;;;10.15;2.33;;;8.00;99.90;;;;;;5025605;28;20148;-71
2023/02/02 08:58:30;;;;;;;16.27;1.90;;;8.10;99.90;;;;;;5012553;28;20085;-71
2023/02/02 09:01:13;;;;;;;5.85;1.70;;;8.10;99.90;;;;;;5008881;28;20067;-72
2023/02/02 09:03:40;;;;;;;12.07;1.90;;;8.20;99.90;;;;;;5008369;28;20488;-72
2023/02/02 09:06:09;;;;;;;8.25;1.88;;;8.20;99.90;;;;;;5022817;28;20961;-72
2023/02/02 09:08:36;;;;;;;12.05;1.73;;;8.30;99.90;;;;;;5031650;28;20056;-71
2023/02/02 09:11:10;;;;;;;10.85;2.08;;;8.30;99.90;;;;;;5026697;28;20037;-72
2023/02/02 09:13:37;;;;;;;8.20;1.40;;;8.40;99.90;;;;;;5011238;28;20132;-71
2023/02/02 09:16:06;;;;;;;4.65;1.60;;;8.50;99.90;;;;;;5014331;28;20038;-70
2023/02/02 09:18:33;;;;;;;9.80;1.67;;;8.50;99.90;;;;;;5009427;28;20076;-71
2023/02/02 09:21:01;;;;;;;5.75;2.20;;;8.50;99.90;;;;;;5026012;28;20132;-71
2023/02/02 09:23:35;;;;;;;4.20;1.20;;;8.60;99.90;;;;;;5025748;28;20049;-71
2023/02/02 09:26:28;;;;;;;;;;;8.60;99.90;;;;;;5025229;28;20046;-71
2023/02/02 09:28:56;;;;;;;2.80;1.42;;;8.60;99.90;;;;;;5010397;28;20391;-71
2023/02/02 09:31:23;;;;;;;8.95;1.58;;;8.70;99.90;;;;;;4997551;28;20601;-72
2023/02/02 09:33:50;;;;;;;3.85;1.58;;;8.70;99.90;;;;;;5028985;28;20049;-72
2023/02/02 09:36:19;;;;;;;3.35;1.58;;;8.70;99.90;;;;;;5029418;28;20079;-73
2023/02/02 09:38:45;;;;;;;5.40;1.50;;;8.70;99.90;;;;;;5021333;28;20054;-73
2023/02/02 09:41:26;;;;;;;5.88;1.42;;;8.80;99.90;;;;;;5019866;28;20069;-72
2023/02/02 09:44:19;;;;;;;6.53;2.22;;;8.80;99.90;;;;;;4996009;28;20128;-72
2023/02/02 09:47:10;;;;;;;7.13;1.58;;;8.80;99.90;;;;;;4992927;28;20402;-73
2023/02/02 09:49:52;;;;;;;7.10;1.30;;;8.90;99.90;;;;;;5016302;28;20085;-72
2023/02/02 09:52:31;;;;;;;4.05;1.27;;;8.90;99.90;;;;;;5021722;28;20128;-74
2023/02/02 09:55:33;;;;;;;8.95;1.88;;;9.00;99.90;;;;;;5019735;28;20072;-72
2023/02/02 09:58:06;;;;;;;4.95;1.92;;;9.00;99.90;;;;;;5003753;28;20057;-72
2023/02/02 10:00:34;;;;;;;7.82;1.40;;;9.10;99.90;;;;;;5032171;28;20556;-73
2023/02/02 10:03:15;;;;;;;7.43;1.63;;;9.10;99.90;;;;;;5012541;28;20053;-73
2023/02/02 10:05:54;;;;;;;5.55;1.67;;;9.20;99.90;;;;;;5011720;28;20125;-72
2023/02/02 10:08:26;;;;;;;9.65;2.75;;;9.20;99.90;;;;;;5019878;28;20138;-73
2023/02/02 10:11:04;;;;;;;7.88;1.33;;;9.20;99.90;;;;;;5016418;28;20107;-74
2023/02/02 10:13:32;;;;;;;16.25;2.00;;;9.20;99.90;;;;;;4999456;28;20053;-74
2023/02/02 10:16:10;;;;;;;4.70;1.50;;;9.30;99.90;;;;;;5015244;28;20045;-73
2023/02/02 10:19:02;;;;;;;9.60;2.05;;;9.30;99.90;;;;;;5000547;28;20085;-73
2023/02/02 10:21:58;;;;;;;5.82;1.73;;;9.40;99.90;;;;;;5013470;28;20053;-73
2023/02/02 10:24:26;;;;;;;10.77;1.48;;;9.40;99.90;;;;;;5001269;28;20060;-74
2023/02/02 10:26:55;;;;;;;3.95;1.60;;;9.50;99.90;;;;;;5013478;28;20053;-73
2023/02/02 10:29:24;;;;;;;3.55;1.15;;;9.50;99.90;;;;;;5002190;28;20057;-74
2023/02/02 10:31:57;;;;;;;3.40;1.30;;;9.60;99.90;;;;;;5031430;28;20037;-72
2023/02/02 10:34:36;;;;;;;6.20;1.90;;;9.60;99.90;;;;;;5024836;28;20193;-73
2023/02/02 10:37:25;;;;;;;7.05;2.08;;;9.60;99.90;;;;;;4980415;28;20088;-74
2023/02/02 10:40:13;;;;;;;10.60;1.65;;;9.60;99.90;;;;;;5017349;28;20064;-74
2023/02/02 10:45:56;;;;;;;1.33;0.80;;;9.80;99.90;;;;;;5023377;28;20056;-74
2023/02/02 10:48:33;;;;;;;5.13;1.73;;;9.80;99.90;;;;;;5009215;28;20046;-74
2023/02/02 10:51:09;;;;;;;7.20;1.27;;;9.90;99.90;;;;;;5019307;28;20050;-74
2023/02/02 10:53:36;;;;;;;3.97;1.20;;;10.00;99.90;;;;;;5024686;28;20050;-74
2023/02/02 10:56:07;;;;;;;7.05;2.70;;;10.00;99.90;;;;;;5000973;28;20561;-72
2023/02/02 10:58:34;;;;;;;19.33;1.63;;;10.10;99.90;;;;;;5026533;28;20734;-73
2023/02/02 11:01:02;;;;;;;3.97;1.15;;;10.20;99.90;;;;;;5018614;28;20049;-73
2023/02/02 11:03:32;;;;;;;11.35;2.13;;;10.40;99.90;;;;;;5025733;28;20042;-72
2023/02/02 11:08:47;;;;;;;3.05;1.27;;;10.40;99.90;;;;;;5023946;28;20038;-73
2023/02/02 11:11:22;;;;;;;10.88;1.40;;;10.40;99.90;;;;;;5006918;28;20129;-73
2023/02/02 11:13:52;;;;;;;6.80;1.55;;;10.30;99.90;;;;;;5008885;28;20057;-74
2023/02/02 11:16:21;;;;;;;9.07;1.42;;;10.30;99.90;;;;;;5018927;28;20069;-73
2023/02/02 11:18:48;;;;;;;17.58;3.35;;;10.40;99.90;;;;;;5009073;28;20523;-74
2023/02/02 11:21:22;;;;;;;3.92;1.45;;;10.50;99.90;;;;;;5019855;28;20046;-73
2023/02/02 11:23:53;;;;;;;5.82;1.58;;;10.70;99.90;;;;;;5009150;28;20088;-73
2023/02/02 11:26:22;;;;;;;9.63;1.48;;;10.80;99.90;;;;;;5013989;28;20045;-73
2023/02/02 11:28:49;;;;;;;3.85;1.23;;;10.80;99.90;;;;;;5026977;28;20089;-73
2023/02/02 11:31:34;;;;;;;16.20;2.92;;;10.80;99.90;;;;;;5019496;28;20038;-73
2023/02/02 11:34:20;;;;;;;4.88;1.42;;;10.70;99.90;;;;;;5008907;28;20060;-73
2023/02/02 11:37:02;;;;;;;9.32;1.20;;;10.70;99.90;;;;;;5019517;28;20050;-73
2023/02/02 11:39:29;;;;;;;12.68;1.40;;;10.70;99.90;;;;;;5009708;28;20408;-73
2023/02/02 11:42:01;;;;;;;10.73;1.70;;;10.80;99.90;;;;;;5013010;28;20556;-73
2023/02/02 11:44:28;;;;;;;6.85;1.48;;;10.80;99.90;;;;;;5008301;28;20466;-73
2023/02/02 11:46:56;;;;;;;55.75;7.60;;;10.80;99.90;;;;;;5017168;28;20195;-72
2023/02/02 11:49:23;;;;;;;7.65;1.88;;;10.90;99.90;;;;;;5027478;28;20056;-73
2023/02/02 11:52:03;;;;;;;4.78;1.10;;;11.00;99.90;;;;;;5023895;28;20045;-73
2023/02/02 11:54:34;;;;;;;7.00;1.20;;;11.10;99.90;;;;;;5027759;28;20358;-72
2023/02/02 11:57:03;;;;;;;14.40;1.80;;;11.00;99.90;;;;;;4994998;28;20128;-73
2023/02/02 11:59:40;;;;;;;6.20;1.83;;;11.10;99.90;;;;;;5029729;28;20084;-72
2023/02/02 12:02:26;;;;;;;5.55;1.42;;;11.10;99.90;;;;;;5005430;28;20052;-73
2023/02/02 12:05:13;;;;;;;5.50;1.70;;;11.00;99.90;;;;;;4992615;28;20128;-73
2023/02/02 12:07:41;;;;;;;6.18;2.05;;;11.00;99.90;;;;;;5020540;28;20049;-73
2023/02/02 12:10:21;;;;;;;7.82;1.40;;;11.00;99.90;;;;;;5031352;28;20101;-73
2023/02/02 12:13:07;;;;;;;7.32;1.85;;;11.00;99.90;;;;;;5004262;28;20112;-72
2023/02/02 12:15:53;;;;;;;7.15;1.80;;;11.00;99.90;;;;;;5031769;28;20049;-73
2023/02/02 12:18:25;;;;;;;2.95;1.58;;;11.00;99.90;;;;;;5022987;28;20045;-73
2023/02/02 12:20:55;;;;;;;8.40;2.22;;;11.10;99.90;;;;;;5012702;28;20568;-73
2023/02/02 12:23:25;;;;;;;12.93;2.38;;;11.10;99.90;;;;;;5023048;28;20136;-73
2023/02/02 12:26:04;;;;;;;11.50;1.73;;;11.10;99.90;;;;;;4994815;28;20139;-73
2023/02/02 12:29:01;;;;;;;8.73;1.70;;;11.00;99.90;;;;;;5022398;28;20141;-74
2023/02/02 12:31:40;;;;;;;9.63;1.38;;;11.00;99.90;;;;;;5014464;28;20445;-72
2023/02/02 12:34:41;;;;;;;9.98;1.38;;;11.00;99.90;;;;;;5021318;28;20137;-73
2023/02/02 12:37:42;;;;;;;10.95;2.08;;;11.00;99.90;;;;;;5026386;28;20513;-73
2023/02/02 12:40:38;;;;;;;10.60;1.60;;;11.00;99.90;;;;;;5001553;28;20709;-73
2023/02/02 12:43:30;;;;;;;9.18;1.42;;;11.10;99.90;;;;;;4987895;28;20045;-74
2023/02/02 12:46:19;;;;;;;5.32;1.63;;;11.10;99.90;;;;;;5011393;28;20084;-70
2023/02/02 12:49:04;;;;;;;1.95;1.23;;;11.20;99.90;;;;;;5017709;28;20123;-74
2023/02/02 12:51:56;;;;;;;10.07;1.65;;;11.30;99.90;;;;;;4998559;28;20056;-72
2023/02/02 12:54:37;;;;;;;4.60;1.65;;;11.30;99.90;;;;;;5010779;28;20091;-74
2023/02/02 12:57:18;;;;;;;10.77;1.65;;;11.30;99.90;;;;;;4994186;28;20106;-73
2023/02/02 12:59:57;;;;;;;4.00;1.33;;;11.40;99.90;;;;;;4986744;28;20137;-73
2023/02/02 13:02:51;;;;;;;5.50;1.45;;;11.40;99.90;;;;;;4996983;28;20041;-74
2023/02/02 13:05:42;;;;;;;9.55;1.38;;;11.40;99.90;;;;;;4989482;28;20050;-75
2023/02/02 13:08:09;;;;;;;9.10;1.35;;;11.40;99.90;;;;;;4992977;28;20060;-73
2023/02/02 13:10:41;;;;;;;4.97;1.35;;;11.40;99.90;;;;;;4992480;28;20046;-74
2023/02/02 13:13:19;;;;;;;9.00;1.30;;;11.40;99.90;;;;;;4970814;28;20048;-74
2023/02/02 13:15:49;;;;;;;5.78;1.55;;;11.40;99.90;;;;;;5003711;28;20050;-74
2023/02/02 13:18:19;;;;;;;7.13;1.30;;;11.40;99.90;;;;;;4989154;28;20042;-74
2023/02/02 13:20:48;;;;;;;3.72;1.23;;;11.40;99.90;;;;;;4974917;28;20098;-74
2023/02/02 13:23:25;;;;;;;5.55;1.00;;;11.40;99.90;;;;;;4981140;28;20060;-74
2023/02/02 13:26:06;;;;;;;4.72;1.00;;;11.40;99.90;;;;;;4985141;28;20049;-73
2023/02/02 13:29:04;;;;;;;13.82;1.80;;;11.30;99.90;;;;;;4989121;28;20070;-73
2023/02/02 13:31:34;;;;;;;8.68;1.50;;;11.30;99.90;;;;;;4982203;28;20556;-74